sensor_id;sensor_type;location;lat;lon;timestamp;P1;durP1;ratioP1;P2;durP2;ratioP2
8312;SDS011;4194;43.408;24.626;2022-12-18T00:01:32;21.90;;;13.27;;
8312;SDS011;4194;43.408;24.626;2022-12-18T00:04:01;21.80;;;13.10;;
8312;SDS011;4194;43.408;24.626;2022-12-18T00:06:28;21.40;;;14.57;;
8312;SDS011;4194;43.408;24.626;2022-12-18T00:08:55;24.40;;;12.90;;
8312;SDS011;4194;43.408;24.626;2022-12-18T00:11:23;22.23;;;14.17;;
8312;SDS011;4194;43.408;24.626;2022-12-18T00:13:50;19.23;;;12.57;;
8312;SDS011;4194;43.408;24.626;2022-12-18T00:16:18;19.93;;;12.47;;
8312;SDS011;4194;43.408;24.626;2022-12-18T00:18:46;20.30;;;13.03;;
8312;SDS011;4194;43.408;24.626;2022-12-18T00:21:17;16.93;;;11.20;;
8312;SDS011;4194;43.408;24.626;2022-12-18T00:23:44;20.53;;;13.43;;
8312;SDS011;4194;43.408;24.626;2022-12-18T00:26:11;22.60;;;12.47;;
8312;SDS011;4194;43.408;24.626;2022-12-18T00:28:58;21.83;;;13.37;;
8312;SDS011;4194;43.408;24.626;2022-12-18T00:31:28;20.97;;;13.60;;
8312;SDS011;4194;43.408;24.626;2022-12-18T00:33:54;20.83;;;13.53;;
8312;SDS011;4194;43.408;24.626;2022-12-18T00:36:25;21.90;;;13.17;;
8312;SDS011;4194;43.408;24.626;2022-12-18T00:38:54;20.90;;;13.00;;
8312;SDS011;4194;43.408;24.626;2022-12-18T00:41:21;24.23;;;12.80;;
8312;SDS011;4194;43.408;24.626;2022-12-18T00:44:06;23.83;;;13.97;;
8312;SDS011;4194;43.408;24.626;2022-12-18T00:46:34;20.63;;;13.03;;
8312;SDS011;4194;43.408;24.626;2022-12-18T00:49:00;19.53;;;12.00;;
8312;SDS011;4194;43.408;24.626;2022-12-18T00:51:26;20.10;;;12.20;;
8312;SDS011;4194;43.408;24.626;2022-12-18T00:53:51;21.80;;;13.17;;
8312;SDS011;4194;43.408;24.626;2022-12-18T00:56:17;20.53;;;13.03;;
8312;SDS011;4194;43.408;24.626;2022-12-18T00:58:43;21.37;;;12.57;;
8312;SDS011;4194;43.408;24.626;2022-12-18T01:01:09;21.03;;;13.30;;
8312;SDS011;4194;43.408;24.626;2022-12-18T01:03:35;23.33;;;12.33;;
8312;SDS011;4194;43.408;24.626;2022-12-18T01:06:10;21.07;;;12.67;;
8312;SDS011;4194;43.408;24.626;2022-12-18T01:08:37;20.70;;;12.37;;
8312;SDS011;4194;43.408;24.626;2022-12-18T01:11:10;17.87;;;11.93;;
8312;SDS011;4194;43.408;24.626;2022-12-18T01:13:38;18.53;;;12.50;;
8312;SDS011;4194;43.408;24.626;2022-12-18T01:16:04;19.53;;;12.67;;
8312;SDS011;4194;43.408;24.626;2022-12-18T01:18:30;17.63;;;11.30;;
8312;SDS011;4194;43.408;24.626;2022-12-18T01:20:56;19.17;;;13.03;;
8312;SDS011;4194;43.408;24.626;2022-12-18T01:23:21;21.57;;;13.13;;
8312;SDS011;4194;43.408;24.626;2022-12-18T01:25:47;19.63;;;13.03;;
8312;SDS011;4194;43.408;24.626;2022-12-18T01:28:13;20.87;;;12.97;;
8312;SDS011;4194;43.408;24.626;2022-12-18T01:30:39;19.07;;;12.60;;
8312;SDS011;4194;43.408;24.626;2022-12-18T01:33:04;23.60;;;12.70;;
8312;SDS011;4194;43.408;24.626;2022-12-18T01:35:30;18.30;;;11.97;;
8312;SDS011;4194;43.408;24.626;2022-12-18T01:37:56;18.10;;;11.80;;
8312;SDS011;4194;43.408;24.626;2022-12-18T01:40:22;17.73;;;12.77;;
8312;SDS011;4194;43.408;24.626;2022-12-18T01:42:51;18.37;;;12.37;;
8312;SDS011;4194;43.408;24.626;2022-12-18T01:47:44;19.30;;;11.60;;
8312;SDS011;4194;43.408;24.626;2022-12-18T01:52:38;15.27;;;10.63;;
8312;SDS011;4194;43.408;24.626;2022-12-18T01:55:07;16.50;;;10.50;;
8312;SDS011;4194;43.408;24.626;2022-12-18T01:57:35;15.73;;;10.33;;
8312;SDS011;4194;43.408;24.626;2022-12-18T02:00:07;14.47;;;10.37;;
8312;SDS011;4194;43.408;24.626;2022-12-18T02:02:37;15.67;;;11.17;;
8312;SDS011;4194;43.408;24.626;2022-12-18T02:05:05;15.63;;;10.33;;
8312;SDS011;4194;43.408;24.626;2022-12-18T02:07:37;15.10;;;11.30;;
8312;SDS011;4194;43.408;24.626;2022-12-18T02:10:20;17.37;;;10.77;;
8312;SDS011;4194;43.408;24.626;2022-12-18T02:14:08;16.30;;;11.17;;
8312;SDS011;4194;43.408;24.626;2022-12-18T02:19:01;13.90;;;10.67;;
8312;SDS011;4194;43.408;24.626;2022-12-18T02:24:28;19.57;;;12.77;;
8312;SDS011;4194;43.408;24.626;2022-12-18T02:27:17;16.07;;;11.00;;
8312;SDS011;4194;43.408;24.626;2022-12-18T02:29:46;17.63;;;11.53;;
8312;SDS011;4194;43.408;24.626;2022-12-18T02:32:18;17.50;;;11.87;;
8312;SDS011;4194;43.408;24.626;2022-12-18T02:34:49;18.07;;;11.33;;
8312;SDS011;4194;43.408;24.626;2022-12-18T02:37:18;17.23;;;11.03;;
8312;SDS011;4194;43.408;24.626;2022-12-18T02:39:46;17.70;;;10.83;;
8312;SDS011;4194;43.408;24.626;2022-12-18T02:42:14;18.00;;;11.73;;
8312;SDS011;4194;43.408;24.626;2022-12-18T02:44:42;15.60;;;11.67;;
8312;SDS011;4194;43.408;24.626;2022-12-18T02:47:10;20.80;;;11.73;;
8312;SDS011;4194;43.408;24.626;2022-12-18T02:57:40;20.20;;;12.53;;
8312;SDS011;4194;43.408;24.626;2022-12-18T03:00:25;19.60;;;12.27;;
8312;SDS011;4194;43.408;24.626;2022-12-18T03:02:57;17.80;;;12.53;;
8312;SDS011;4194;43.408;24.626;2022-12-18T03:05:56;18.77;;;12.47;;
8312;SDS011;4194;43.408;24.626;2022-12-18T03:08:30;20.07;;;12.73;;
8312;SDS011;4194;43.408;24.626;2022-12-18T03:11:04;18.40;;;13.13;;
8312;SDS011;4194;43.408;24.626;2022-12-18T03:16:05;21.70;;;13.87;;
8312;SDS011;4194;43.408;24.626;2022-12-18T03:18:53;21.80;;;14.27;;
8312;SDS011;4194;43.408;24.626;2022-12-18T03:21:23;21.97;;;14.23;;
8312;SDS011;4194;43.408;24.626;2022-12-18T03:23:54;21.67;;;14.43;;
8312;SDS011;4194;43.408;24.626;2022-12-18T03:26:22;25.87;;;15.07;;
8312;SDS011;4194;43.408;24.626;2022-12-18T03:28:55;27.90;;;16.10;;
8312;SDS011;4194;43.408;24.626;2022-12-18T03:31:25;27.30;;;16.57;;
8312;SDS011;4194;43.408;24.626;2022-12-18T03:33:58;25.50;;;17.13;;
8312;SDS011;4194;43.408;24.626;2022-12-18T03:36:27;26.97;;;17.07;;
8312;SDS011;4194;43.408;24.626;2022-12-18T03:38:53;27.97;;;17.47;;
8312;SDS011;4194;43.408;24.626;2022-12-18T03:41:32;28.00;;;18.33;;
8312;SDS011;4194;43.408;24.626;2022-12-18T03:44:20;29.97;;;17.13;;
8312;SDS011;4194;43.408;24.626;2022-12-18T03:47:07;28.93;;;18.43;;
8312;SDS011;4194;43.408;24.626;2022-12-18T03:49:46;36.60;;;17.67;;
8312;SDS011;4194;43.408;24.626;2022-12-18T03:52:25;29.37;;;18.03;;
8312;SDS011;4194;43.408;24.626;2022-12-18T03:54:57;26.40;;;16.83;;
8312;SDS011;4194;43.408;24.626;2022-12-18T03:57:26;28.73;;;17.67;;
8312;SDS011;4194;43.408;24.626;2022-12-18T03:59:57;32.87;;;18.63;;
8312;SDS011;4194;43.408;24.626;2022-12-18T04:02:29;28.20;;;17.43;;
8312;SDS011;4194;43.408;24.626;2022-12-18T04:04:58;33.50;;;19.90;;
8312;SDS011;4194;43.408;24.626;2022-12-18T04:07:27;32.43;;;19.43;;
8312;SDS011;4194;43.408;24.626;2022-12-18T04:09:54;29.00;;;18.10;;
8312;SDS011;4194;43.408;24.626;2022-12-18T04:12:26;33.10;;;18.80;;
8312;SDS011;4194;43.408;24.626;2022-12-18T04:14:53;30.37;;;18.23;;
8312;SDS011;4194;43.408;24.626;2022-12-18T04:17:19;34.07;;;19.27;;
8312;SDS011;4194;43.408;24.626;2022-12-18T04:19:45;30.70;;;17.97;;
8312;SDS011;4194;43.408;24.626;2022-12-18T04:22:11;33.30;;;18.73;;
8312;SDS011;4194;43.408;24.626;2022-12-18T04:24:36;31.90;;;17.37;;
8312;SDS011;4194;43.408;24.626;2022-12-18T04:27:02;29.27;;;18.93;;
8312;SDS011;4194;43.408;24.626;2022-12-18T04:29:28;31.73;;;19.37;;
8312;SDS011;4194;43.408;24.626;2022-12-18T04:31:54;29.63;;;17.63;;
8312;SDS011;4194;43.408;24.626;2022-12-18T04:34:20;28.10;;;18.60;;
8312;SDS011;4194;43.408;24.626;2022-12-18T04:36:46;28.83;;;17.80;;
8312;SDS011;4194;43.408;24.626;2022-12-18T04:39:11;34.53;;;19.97;;
8312;SDS011;4194;43.408;24.626;2022-12-18T04:41:37;31.33;;;18.07;;
8312;SDS011;4194;43.408;24.626;2022-12-18T04:44:03;29.67;;;18.53;;
8312;SDS011;4194;43.408;24.626;2022-12-18T04:46:29;36.00;;;19.80;;
8312;SDS011;4194;43.408;24.626;2022-12-18T04:48:55;31.13;;;19.63;;
8312;SDS011;4194;43.408;24.626;2022-12-18T04:51:21;29.90;;;18.30;;
8312;SDS011;4194;43.408;24.626;2022-12-18T04:53:46;34.93;;;20.23;;
8312;SDS011;4194;43.408;24.626;2022-12-18T04:56:13;32.10;;;20.93;;
8312;SDS011;4194;43.408;24.626;2022-12-18T04:58:40;33.33;;;18.97;;
8312;SDS011;4194;43.408;24.626;2022-12-18T05:01:08;30.90;;;18.93;;
8312;SDS011;4194;43.408;24.626;2022-12-18T05:03:35;29.97;;;18.80;;
8312;SDS011;4194;43.408;24.626;2022-12-18T05:06:06;31.17;;;20.23;;
8312;SDS011;4194;43.408;24.626;2022-12-18T05:08:32;32.50;;;19.43;;
8312;SDS011;4194;43.408;24.626;2022-12-18T05:11:05;32.17;;;19.40;;
8312;SDS011;4194;43.408;24.626;2022-12-18T05:13:33;34.53;;;20.20;;
8312;SDS011;4194;43.408;24.626;2022-12-18T05:16:00;35.20;;;20.00;;
8312;SDS011;4194;43.408;24.626;2022-12-18T05:18:26;36.70;;;20.40;;
8312;SDS011;4194;43.408;24.626;2022-12-18T05:20:52;35.30;;;19.80;;
8312;SDS011;4194;43.408;24.626;2022-12-18T05:23:19;34.47;;;20.27;;
8312;SDS011;4194;43.408;24.626;2022-12-18T05:25:55;31.80;;;20.23;;
8312;SDS011;4194;43.408;24.626;2022-12-18T05:28:23;36.13;;;20.87;;
8312;SDS011;4194;43.408;24.626;2022-12-18T05:30:51;41.13;;;21.67;;
8312;SDS011;4194;43.408;24.626;2022-12-18T05:33:18;33.77;;;20.67;;
8312;SDS011;4194;43.408;24.626;2022-12-18T05:35:49;34.83;;;21.20;;
8312;SDS011;4194;43.408;24.626;2022-12-18T05:38:16;34.17;;;20.40;;
8312;SDS011;4194;43.408;24.626;2022-12-18T05:40:43;35.73;;;21.20;;
8312;SDS011;4194;43.408;24.626;2022-12-18T05:43:09;32.10;;;20.23;;
8312;SDS011;4194;43.408;24.626;2022-12-18T05:45:38;35.93;;;20.57;;
8312;SDS011;4194;43.408;24.626;2022-12-18T05:48:04;34.30;;;20.07;;
8312;SDS011;4194;43.408;24.626;2022-12-18T05:50:30;37.73;;;22.00;;
8312;SDS011;4194;43.408;24.626;2022-12-18T05:52:58;35.73;;;20.30;;
8312;SDS011;4194;43.408;24.626;2022-12-18T05:55:24;34.07;;;21.00;;
8312;SDS011;4194;43.408;24.626;2022-12-18T05:57:51;32.63;;;20.20;;
8312;SDS011;4194;43.408;24.626;2022-12-18T06:00:16;37.77;;;21.33;;
8312;SDS011;4194;43.408;24.626;2022-12-18T06:02:45;40.40;;;22.47;;
8312;SDS011;4194;43.408;24.626;2022-12-18T06:05:12;36.93;;;21.57;;
8312;SDS011;4194;43.408;24.626;2022-12-18T06:07:37;42.37;;;26.37;;
8312;SDS011;4194;43.408;24.626;2022-12-18T06:10:03;44.37;;;25.33;;
8312;SDS011;4194;43.408;24.626;2022-12-18T06:12:29;38.10;;;23.33;;
8312;SDS011;4194;43.408;24.626;2022-12-18T06:14:55;38.70;;;22.83;;
8312;SDS011;4194;43.408;24.626;2022-12-18T06:17:21;34.97;;;21.97;;
8312;SDS011;4194;43.408;24.626;2022-12-18T06:19:46;36.23;;;21.37;;
8312;SDS011;4194;43.408;24.626;2022-12-18T06:22:12;33.93;;;19.10;;
8312;SDS011;4194;43.408;24.626;2022-12-18T06:24:38;34.87;;;21.07;;
8312;SDS011;4194;43.408;24.626;2022-12-18T06:27:03;35.10;;;19.97;;
8312;SDS011;4194;43.408;24.626;2022-12-18T06:29:29;31.40;;;20.23;;
8312;SDS011;4194;43.408;24.626;2022-12-18T06:31:54;32.77;;;18.63;;
8312;SDS011;4194;43.408;24.626;2022-12-18T06:34:20;33.87;;;20.23;;
8312;SDS011;4194;43.408;24.626;2022-12-18T06:36:46;35.60;;;20.50;;
8312;SDS011;4194;43.408;24.626;2022-12-18T06:39:11;33.07;;;20.50;;
8312;SDS011;4194;43.408;24.626;2022-12-18T06:41:37;35.83;;;19.60;;
8312;SDS011;4194;43.408;24.626;2022-12-18T06:44:03;30.27;;;18.83;;
8312;SDS011;4194;43.408;24.626;2022-12-18T06:46:28;33.27;;;20.00;;
8312;SDS011;4194;43.408;24.626;2022-12-18T06:48:54;31.80;;;18.30;;
8312;SDS011;4194;43.408;24.626;2022-12-18T06:51:21;34.40;;;20.33;;
8312;SDS011;4194;43.408;24.626;2022-12-18T06:53:48;34.30;;;18.77;;
8312;SDS011;4194;43.408;24.626;2022-12-18T06:56:13;31.63;;;19.97;;
8312;SDS011;4194;43.408;24.626;2022-12-18T06:58:39;30.20;;;20.10;;
8312;SDS011;4194;43.408;24.626;2022-12-18T07:01:07;30.70;;;19.00;;
8312;SDS011;4194;43.408;24.626;2022-12-18T07:03:35;30.23;;;18.17;;
8312;SDS011;4194;43.408;24.626;2022-12-18T07:06:01;29.33;;;18.13;;
8312;SDS011;4194;43.408;24.626;2022-12-18T07:08:28;28.87;;;19.13;;
8312;SDS011;4194;43.408;24.626;2022-12-18T07:10:55;31.87;;;18.37;;
8312;SDS011;4194;43.408;24.626;2022-12-18T07:13:21;26.47;;;18.03;;
8312;SDS011;4194;43.408;24.626;2022-12-18T07:15:46;32.37;;;17.33;;
8312;SDS011;4194;43.408;24.626;2022-12-18T07:18:12;29.77;;;19.75;;
8312;SDS011;4194;43.408;24.626;2022-12-18T07:20:38;29.07;;;17.97;;
8312;SDS011;4194;43.408;24.626;2022-12-18T07:23:04;29.77;;;16.90;;
8312;SDS011;4194;43.408;24.626;2022-12-18T07:25:33;26.43;;;16.27;;
8312;SDS011;4194;43.408;24.626;2022-12-18T07:27:59;25.57;;;16.50;;
8312;SDS011;4194;43.408;24.626;2022-12-18T07:30:25;26.53;;;15.70;;
8312;SDS011;4194;43.408;24.626;2022-12-18T07:32:51;30.27;;;15.80;;
8312;SDS011;4194;43.408;24.626;2022-12-18T07:35:16;27.30;;;17.37;;
8312;SDS011;4194;43.408;24.626;2022-12-18T07:37:42;29.43;;;16.90;;
8312;SDS011;4194;43.408;24.626;2022-12-18T07:40:08;29.07;;;16.60;;
8312;SDS011;4194;43.408;24.626;2022-12-18T07:42:34;26.83;;;16.00;;
8312;SDS011;4194;43.408;24.626;2022-12-18T07:45:01;25.43;;;14.77;;
8312;SDS011;4194;43.408;24.626;2022-12-18T07:47:27;28.50;;;16.13;;
8312;SDS011;4194;43.408;24.626;2022-12-18T07:49:53;24.53;;;15.50;;
8312;SDS011;4194;43.408;24.626;2022-12-18T07:52:19;27.57;;;16.17;;
8312;SDS011;4194;43.408;24.626;2022-12-18T07:54:45;28.90;;;18.20;;
8312;SDS011;4194;43.408;24.626;2022-12-18T07:57:10;33.47;;;21.67;;
8312;SDS011;4194;43.408;24.626;2022-12-18T07:59:36;51.93;;;31.87;;
8312;SDS011;4194;43.408;24.626;2022-12-18T08:02:02;73.70;;;43.80;;
8312;SDS011;4194;43.408;24.626;2022-12-18T08:04:28;44.87;;;24.67;;
8312;SDS011;4194;43.408;24.626;2022-12-18T08:06:53;27.43;;;18.77;;
8312;SDS011;4194;43.408;24.626;2022-12-18T08:09:19;26.73;;;17.67;;
8312;SDS011;4194;43.408;24.626;2022-12-18T08:11:45;27.17;;;16.80;;
8312;SDS011;4194;43.408;24.626;2022-12-18T08:14:10;25.67;;;17.57;;
8312;SDS011;4194;43.408;24.626;2022-12-18T08:16:36;28.47;;;17.87;;
8312;SDS011;4194;43.408;24.626;2022-12-18T08:19:02;27.53;;;16.97;;
8312;SDS011;4194;43.408;24.626;2022-12-18T08:21:29;24.63;;;15.67;;
8312;SDS011;4194;43.408;24.626;2022-12-18T08:23:56;27.50;;;17.60;;
8312;SDS011;4194;43.408;24.626;2022-12-18T08:26:24;25.83;;;15.63;;
8312;SDS011;4194;43.408;24.626;2022-12-18T08:28:53;26.57;;;16.27;;
8312;SDS011;4194;43.408;24.626;2022-12-18T08:31:20;25.97;;;16.53;;
8312;SDS011;4194;43.408;24.626;2022-12-18T08:33:47;29.27;;;16.70;;
8312;SDS011;4194;43.408;24.626;2022-12-18T08:36:14;29.53;;;17.13;;
8312;SDS011;4194;43.408;24.626;2022-12-18T08:38:40;24.87;;;15.53;;
8312;SDS011;4194;43.408;24.626;2022-12-18T08:41:06;24.17;;;15.83;;
8312;SDS011;4194;43.408;24.626;2022-12-18T08:43:34;26.73;;;16.90;;
8312;SDS011;4194;43.408;24.626;2022-12-18T08:46:19;25.90;;;15.43;;
8312;SDS011;4194;43.408;24.626;2022-12-18T08:48:45;27.23;;;16.30;;
8312;SDS011;4194;43.408;24.626;2022-12-18T08:51:12;24.23;;;15.43;;
8312;SDS011;4194;43.408;24.626;2022-12-18T08:53:37;27.60;;;16.63;;
8312;SDS011;4194;43.408;24.626;2022-12-18T08:56:03;26.10;;;16.50;;
8312;SDS011;4194;43.408;24.626;2022-12-18T08:58:30;27.53;;;16.10;;
8312;SDS011;4194;43.408;24.626;2022-12-18T09:01:00;25.43;;;16.83;;
8312;SDS011;4194;43.408;24.626;2022-12-18T09:03:27;25.30;;;17.10;;
8312;SDS011;4194;43.408;24.626;2022-12-18T09:05:52;24.87;;;15.83;;
8312;SDS011;4194;43.408;24.626;2022-12-18T09:08:18;28.23;;;16.17;;
8312;SDS011;4194;43.408;24.626;2022-12-18T09:10:44;21.67;;;13.90;;
8312;SDS011;4194;43.408;24.626;2022-12-18T09:13:11;21.83;;;14.50;;
8312;SDS011;4194;43.408;24.626;2022-12-18T09:15:55;25.23;;;15.37;;
8312;SDS011;4194;43.408;24.626;2022-12-18T09:18:24;25.20;;;15.83;;
8312;SDS011;4194;43.408;24.626;2022-12-18T09:20:50;27.60;;;15.33;;
8312;SDS011;4194;43.408;24.626;2022-12-18T09:23:17;22.10;;;14.47;;
8312;SDS011;4194;43.408;24.626;2022-12-18T09:25:43;22.43;;;13.60;;
8312;SDS011;4194;43.408;24.626;2022-12-18T09:28:11;25.17;;;14.43;;
8312;SDS011;4194;43.408;24.626;2022-12-18T09:30:40;20.20;;;12.87;;
8312;SDS011;4194;43.408;24.626;2022-12-18T09:33:08;22.37;;;15.10;;
8312;SDS011;4194;43.408;24.626;2022-12-18T09:35:37;21.33;;;13.33;;
8312;SDS011;4194;43.408;24.626;2022-12-18T09:38:03;23.13;;;13.70;;
8312;SDS011;4194;43.408;24.626;2022-12-18T09:40:35;22.43;;;13.97;;
8312;SDS011;4194;43.408;24.626;2022-12-18T09:43:24;22.47;;;14.03;;
8312;SDS011;4194;43.408;24.626;2022-12-18T09:45:55;23.37;;;13.50;;
8312;SDS011;4194;43.408;24.626;2022-12-18T09:48:28;19.63;;;12.30;;
8312;SDS011;4194;43.408;24.626;2022-12-18T09:51:09;23.97;;;12.90;;
8312;SDS011;4194;43.408;24.626;2022-12-18T09:53:45;21.77;;;12.93;;
8312;SDS011;4194;43.408;24.626;2022-12-18T09:56:26;22.27;;;14.43;;
8312;SDS011;4194;43.408;24.626;2022-12-18T09:58:58;21.67;;;13.80;;
8312;SDS011;4194;43.408;24.626;2022-12-18T10:01:25;22.20;;;14.43;;
8312;SDS011;4194;43.408;24.626;2022-12-18T10:03:53;20.30;;;13.30;;
8312;SDS011;4194;43.408;24.626;2022-12-18T10:06:24;23.77;;;12.90;;
8312;SDS011;4194;43.408;24.626;2022-12-18T10:09:01;24.80;;;14.83;;
8312;SDS011;4194;43.408;24.626;2022-12-18T10:11:43;24.20;;;14.80;;
8312;SDS011;4194;43.408;24.626;2022-12-18T10:14:41;21.07;;;12.97;;
8312;SDS011;4194;43.408;24.626;2022-12-18T10:20:13;20.67;;;13.90;;
8312;SDS011;4194;43.408;24.626;2022-12-18T10:23:00;25.00;;;14.80;;
8312;SDS011;4194;43.408;24.626;2022-12-18T10:28:15;24.43;;;13.70;;
8312;SDS011;4194;43.408;24.626;2022-12-18T10:30:42;21.87;;;14.07;;
8312;SDS011;4194;43.408;24.626;2022-12-18T10:33:16;25.20;;;14.43;;
8312;SDS011;4194;43.408;24.626;2022-12-18T10:35:44;26.23;;;15.03;;
8312;SDS011;4194;43.408;24.626;2022-12-18T10:40:48;22.90;;;14.63;;
8312;SDS011;4194;43.408;24.626;2022-12-18T10:43:14;28.97;;;15.53;;
8312;SDS011;4194;43.408;24.626;2022-12-18T10:45:44;23.87;;;14.30;;
8312;SDS011;4194;43.408;24.626;2022-12-18T10:48:25;24.57;;;13.63;;
8312;SDS011;4194;43.408;24.626;2022-12-18T10:50:51;24.10;;;14.63;;
8312;SDS011;4194;43.408;24.626;2022-12-18T10:53:22;25.03;;;14.63;;
8312;SDS011;4194;43.408;24.626;2022-12-18T10:55:53;25.00;;;13.90;;
8312;SDS011;4194;43.408;24.626;2022-12-18T10:58:31;26.07;;;14.63;;
8312;SDS011;4194;43.408;24.626;2022-12-18T11:01:03;24.70;;;13.97;;
8312;SDS011;4194;43.408;24.626;2022-12-18T11:03:34;31.20;;;16.03;;
8312;SDS011;4194;43.408;24.626;2022-12-18T11:08:35;21.93;;;13.87;;
8312;SDS011;4194;43.408;24.626;2022-12-18T11:11:02;24.90;;;13.80;;
8312;SDS011;4194;43.408;24.626;2022-12-18T11:13:29;21.13;;;12.90;;
8312;SDS011;4194;43.408;24.626;2022-12-18T11:15:56;21.90;;;14.13;;
8312;SDS011;4194;43.408;24.626;2022-12-18T11:18:27;27.53;;;14.43;;
8312;SDS011;4194;43.408;24.626;2022-12-18T11:21:07;25.00;;;12.77;;
8312;SDS011;4194;43.408;24.626;2022-12-18T11:23:35;21.97;;;13.30;;
8312;SDS011;4194;43.408;24.626;2022-12-18T11:26:08;21.13;;;12.97;;
8312;SDS011;4194;43.408;24.626;2022-12-18T11:28:38;22.77;;;13.63;;
8312;SDS011;4194;43.408;24.626;2022-12-18T11:33:45;22.20;;;13.83;;
8312;SDS011;4194;43.408;24.626;2022-12-18T11:36:17;22.57;;;14.23;;
8312;SDS011;4194;43.408;24.626;2022-12-18T11:38:43;21.33;;;13.07;;
8312;SDS011;4194;43.408;24.626;2022-12-18T11:44:20;19.37;;;11.93;;
8312;SDS011;4194;43.408;24.626;2022-12-18T11:46:52;21.57;;;12.63;;
8312;SDS011;4194;43.408;24.626;2022-12-18T11:49:29;17.93;;;11.30;;
8312;SDS011;4194;43.408;24.626;2022-12-18T11:54:51;19.93;;;11.10;;
8312;SDS011;4194;43.408;24.626;2022-12-18T11:57:27;19.53;;;10.37;;
8312;SDS011;4194;43.408;24.626;2022-12-18T12:08:26;18.90;;;9.93;;
8312;SDS011;4194;43.408;24.626;2022-12-18T12:25:30;20.03;;;10.93;;
8312;SDS011;4194;43.408;24.626;2022-12-18T12:28:13;15.17;;;9.80;;
8312;SDS011;4194;43.408;24.626;2022-12-18T12:39:13;17.53;;;10.00;;
8312;SDS011;4194;43.408;24.626;2022-12-18T12:41:46;17.57;;;11.20;;
8312;SDS011;4194;43.408;24.626;2022-12-18T12:44:31;20.60;;;11.93;;
8312;SDS011;4194;43.408;24.626;2022-12-18T12:47:06;18.90;;;10.20;;
8312;SDS011;4194;43.408;24.626;2022-12-18T12:49:41;19.27;;;10.50;;
8312;SDS011;4194;43.408;24.626;2022-12-18T12:52:13;17.23;;;9.67;;
8312;SDS011;4194;43.408;24.626;2022-12-18T12:54:42;17.37;;;10.13;;
8312;SDS011;4194;43.408;24.626;2022-12-18T12:57:20;17.33;;;9.97;;
8312;SDS011;4194;43.408;24.626;2022-12-18T12:59:56;15.20;;;9.63;;
8312;SDS011;4194;43.408;24.626;2022-12-18T13:05:49;17.23;;;10.37;;
8312;SDS011;4194;43.408;24.626;2022-12-18T13:09:01;14.23;;;9.60;;
8312;SDS011;4194;43.408;24.626;2022-12-18T13:11:29;15.67;;;10.30;;
8312;SDS011;4194;43.408;24.626;2022-12-18T13:17:14;16.83;;;10.57;;
8312;SDS011;4194;43.408;24.626;2022-12-18T13:19:50;20.30;;;12.83;;
8312;SDS011;4194;43.408;24.626;2022-12-18T13:22:31;45.37;;;26.23;;
8312;SDS011;4194;43.408;24.626;2022-12-18T13:25:01;17.83;;;11.23;;
8312;SDS011;4194;43.408;24.626;2022-12-18T13:38:45;18.40;;;10.77;;
8312;SDS011;4194;43.408;24.626;2022-12-18T13:41:20;18.53;;;9.97;;
8312;SDS011;4194;43.408;24.626;2022-12-18T13:43:49;17.80;;;10.97;;
8312;SDS011;4194;43.408;24.626;2022-12-18T13:49:00;19.07;;;11.13;;
8312;SDS011;4194;43.408;24.626;2022-12-18T13:51:50;20.60;;;11.57;;
8312;SDS011;4194;43.408;24.626;2022-12-18T13:54:26;19.73;;;12.10;;
8312;SDS011;4194;43.408;24.626;2022-12-18T13:57:05;20.63;;;11.37;;
8312;SDS011;4194;43.408;24.626;2022-12-18T13:59:50;17.70;;;11.27;;
8312;SDS011;4194;43.408;24.626;2022-12-18T14:02:18;19.17;;;10.80;;
8312;SDS011;4194;43.408;24.626;2022-12-18T14:04:47;20.10;;;12.10;;
8312;SDS011;4194;43.408;24.626;2022-12-18T14:07:14;24.20;;;12.73;;
8312;SDS011;4194;43.408;24.626;2022-12-18T14:09:43;20.17;;;11.77;;
8312;SDS011;4194;43.408;24.626;2022-12-18T14:12:25;23.53;;;11.77;;
8312;SDS011;4194;43.408;24.626;2022-12-18T14:18:01;20.97;;;12.23;;
8312;SDS011;4194;43.408;24.626;2022-12-18T14:20:48;19.00;;;11.70;;
8312;SDS011;4194;43.408;24.626;2022-12-18T14:23:26;20.87;;;11.13;;
8312;SDS011;4194;43.408;24.626;2022-12-18T14:25:54;21.27;;;11.33;;
8312;SDS011;4194;43.408;24.626;2022-12-18T14:28:19;18.67;;;11.93;;
8312;SDS011;4194;43.408;24.626;2022-12-18T14:30:47;21.13;;;11.27;;
8312;SDS011;4194;43.408;24.626;2022-12-18T14:33:19;19.37;;;12.00;;
8312;SDS011;4194;43.408;24.626;2022-12-18T14:40:58;19.43;;;12.10;;
8312;SDS011;4194;43.408;24.626;2022-12-18T14:43:25;21.13;;;12.47;;
8312;SDS011;4194;43.408;24.626;2022-12-18T14:45:52;21.47;;;12.60;;
8312;SDS011;4194;43.408;24.626;2022-12-18T14:48:19;24.10;;;13.77;;
8312;SDS011;4194;43.408;24.626;2022-12-18T14:50:58;19.43;;;12.37;;
8312;SDS011;4194;43.408;24.626;2022-12-18T14:53:34;25.33;;;14.53;;
8312;SDS011;4194;43.408;24.626;2022-12-18T14:56:03;21.53;;;13.43;;
8312;SDS011;4194;43.408;24.626;2022-12-18T14:58:38;22.13;;;15.37;;
8312;SDS011;4194;43.408;24.626;2022-12-18T15:01:04;24.50;;;15.40;;
8312;SDS011;4194;43.408;24.626;2022-12-18T15:03:30;25.73;;;14.53;;
8312;SDS011;4194;43.408;24.626;2022-12-18T15:05:56;26.53;;;15.27;;
8312;SDS011;4194;43.408;24.626;2022-12-18T15:08:49;23.70;;;13.57;;
8312;SDS011;4194;43.408;24.626;2022-12-18T15:11:28;23.50;;;13.13;;
8312;SDS011;4194;43.408;24.626;2022-12-18T15:14:21;21.90;;;12.30;;
8312;SDS011;4194;43.408;24.626;2022-12-18T15:16:55;19.23;;;12.37;;
8312;SDS011;4194;43.408;24.626;2022-12-18T15:19:31;25.00;;;14.00;;
8312;SDS011;4194;43.408;24.626;2022-12-18T15:21:57;26.33;;;13.83;;
8312;SDS011;4194;43.408;24.626;2022-12-18T15:24:26;34.10;;;15.27;;
8312;SDS011;4194;43.408;24.626;2022-12-18T15:26:54;23.23;;;13.07;;
8312;SDS011;4194;43.408;24.626;2022-12-18T15:29:21;27.90;;;14.87;;
8312;SDS011;4194;43.408;24.626;2022-12-18T15:34:46;28.07;;;15.07;;
8312;SDS011;4194;43.408;24.626;2022-12-18T15:37:12;31.17;;;16.97;;
8312;SDS011;4194;43.408;24.626;2022-12-18T15:39:38;37.53;;;22.67;;
8312;SDS011;4194;43.408;24.626;2022-12-18T15:42:04;44.67;;;23.83;;
8312;SDS011;4194;43.408;24.626;2022-12-18T15:44:48;41.20;;;20.83;;
8312;SDS011;4194;43.408;24.626;2022-12-18T15:47:14;36.73;;;19.17;;
8312;SDS011;4194;43.408;24.626;2022-12-18T15:49:39;36.80;;;19.43;;
8312;SDS011;4194;43.408;24.626;2022-12-18T15:52:05;35.47;;;18.47;;
8312;SDS011;4194;43.408;24.626;2022-12-18T15:54:31;32.37;;;17.23;;
8312;SDS011;4194;43.408;24.626;2022-12-18T15:57:15;36.70;;;19.40;;
8312;SDS011;4194;43.408;24.626;2022-12-18T15:59:50;32.13;;;17.60;;
8312;SDS011;4194;43.408;24.626;2022-12-18T16:02:17;28.40;;;16.93;;
8312;SDS011;4194;43.408;24.626;2022-12-18T16:04:44;31.80;;;17.40;;
8312;SDS011;4194;43.408;24.626;2022-12-18T16:07:11;30.53;;;16.93;;
8312;SDS011;4194;43.408;24.626;2022-12-18T16:09:37;30.30;;;18.07;;
8312;SDS011;4194;43.408;24.626;2022-12-18T16:12:03;31.23;;;18.10;;
8312;SDS011;4194;43.408;24.626;2022-12-18T16:14:31;39.60;;;21.30;;
8312;SDS011;4194;43.408;24.626;2022-12-18T16:17:01;31.77;;;16.43;;
8312;SDS011;4194;43.408;24.626;2022-12-18T16:19:30;31.27;;;16.40;;
8312;SDS011;4194;43.408;24.626;2022-12-18T16:21:56;31.43;;;16.80;;
8312;SDS011;4194;43.408;24.626;2022-12-18T16:24:23;32.40;;;16.00;;
8312;SDS011;4194;43.408;24.626;2022-12-18T16:26:51;33.57;;;17.27;;
8312;SDS011;4194;43.408;24.626;2022-12-18T16:29:17;30.83;;;17.63;;
8312;SDS011;4194;43.408;24.626;2022-12-18T16:31:49;30.87;;;17.00;;
8312;SDS011;4194;43.408;24.626;2022-12-18T16:34:21;38.87;;;22.50;;
8312;SDS011;4194;43.408;24.626;2022-12-18T16:36:50;34.03;;;19.73;;